Terminal Aerodrome Forecast
Issued by NWS Midland/Odessa, TX

Home | Current Version | Previous Version | Text Only | Print | Product List | Glossary On
Versions: 1 2 3 4 5 6 7 8 9 10 11 12 13 14 15 16 17 18 19 20 21 22 23 24 25 26 27 28 29 30 31 32
000
FTUS44 KMAF 231100
TAFMAF
TAF
KMAF 231131Z 2312/2412 15010KT P6SM SCT019 BKN200
      TEMPO 2314/2316 3SM -TSRA OVC015CB
     FM231600 19016KT P6SM BKN025 OVC100
      TEMPO 2316/2320 4SM TSRA OVC025CB
     FM232000 18012KT P6SM BKN050 OVC120
      TEMPO 2320/2324 4SM TSRA OVC015CB
     FM240000 16015KT P6SM BKN035 OVC100
      TEMPO 2400/2404 4SM TSRA OVC020CB=

USA.gov is the U.S. government's official web portal to all federal, state and local government web resources and services.